Time;durP1;ratioP1;P1;durP2;ratioP2;P2;SDS_P1;SDS_P2;PMS_P1;PMS_P2;Temp;Humidity;BMP_temperature;BMP_pressure;BME280_temperature;BME280_humidity;BME280_pressure;Samples;Min_cycle;Max_cycle;Signal;HPM_P1;HPM_P2
2022/07/04 00:00:30;;;;;;;;;;;;;;;23.12;72.38;153468.88;1748880;81;20127;-63
2022/07/04 00:02:57;;;;;;;;;;;;;;;23.09;72.31;153460.98;1748834;82;20178;-63
2022/07/04 00:05:24;;;;;;;;;;;;;;;23.08;72.35;153458.36;1749053;81;21879;-63
2022/07/04 00:07:53;;;;;;;;;;;;;;;23.07;72.08;153455.75;1748659;81;20158;-63
2022/07/04 00:10:22;;;;;;;;;;;;;;;23.08;71.70;153457.08;1752774;81;20161;-63
2022/07/04 00:12:50;;;;;;;;;;;;;;;23.10;71.46;153462.31;1764476;81;20172;-63
2022/07/04 00:15:18;;;;;;;;;;;;;;;23.09;71.13;153460.98;1764845;81;20169;-63
2022/07/04 00:17:45;;;;;;;;;;;;;;;23.10;70.75;153463.64;1764725;81;21203;-63
2022/07/04 00:20:11;;;;;;;;;;;;;;;23.08;70.48;153458.36;1745078;81;20167;-63
2022/07/04 00:22:40;;;;;;;;;;;;;;;23.04;70.21;153449.23;1682588;84;20186;-63
2022/07/04 00:25:07;;;;;;;;;;;;;;;23.01;69.87;153441.39;1674368;85;20141;-63
2022/07/04 00:27:35;;;;;;;;;;;;;;;22.99;69.79;153434.83;1674517;85;20164;-63
2022/07/04 00:30:04;;;;;;;;;;;;;;;22.97;69.64;153429.59;1674620;85;39733;-63
2022/07/04 00:32:31;;;;;;;;;;;;;;;22.92;69.61;153416.53;1674467;85;20593;-63
2022/07/04 00:34:58;;;;;;;;;;;;;;;22.89;69.60;153409.97;1674527;85;20222;-64
2022/07/04 00:37:24;;;;;;;;;;;;;;;22.86;69.54;153403.41;1674460;85;20505;-62
2022/07/04 00:39:51;;;;;;;;;;;;;;;22.85;69.54;153400.80;1674400;85;20214;-62
2022/07/04 00:42:18;;;;;;;;;;;;;;;22.84;69.54;153398.19;1674432;85;21251;-62
2022/07/04 00:44:44;;;;;;;;;;;;;;;22.85;69.47;153400.80;1674316;85;20180;-63
2022/07/04 00:47:11;;;;;;;;;;;;;;;22.88;69.45;153408.69;1674452;85;20176;-63
2022/07/04 00:49:40;;;;;;;;;;;;;;;22.89;69.32;153411.30;1674482;85;20216;-63
2022/07/04 00:52:07;;;;;;;;;;;;;;;22.91;69.45;153413.91;1674531;85;20446;-62
2022/07/04 00:54:33;;;;;;;;;;;;;;;22.95;69.28;153425.66;1653538;85;22134;-63
2022/07/04 00:57:00;;;;;;;;;;;;;;;22.96;68.92;153428.28;1674249;85;20172;-63
2022/07/04 00:59:27;;;;;;;;;;;;;;;22.92;68.90;153417.81;1674558;85;20319;-63
2022/07/04 01:01:54;;;;;;;;;;;;;;;22.91;68.78;153415.19;1674571;85;20196;-63
2022/07/04 01:04:21;;;;;;;;;;;;;;;22.91;68.79;153413.91;1674498;85;20172;-62
2022/07/04 01:06:49;;;;;;;;;;;;;;;22.91;68.57;153413.91;1674314;85;21247;-62
2022/07/04 01:09:16;;;;;;;;;;;;;;;22.91;68.45;153415.19;1674778;85;20224;-62
2022/07/04 01:11:42;;;;;;;;;;;;;;;22.89;68.37;153411.30;1674492;85;20171;-62
2022/07/04 01:14:11;;;;;;;;;;;;;;;22.91;68.23;153413.91;1683186;85;20120;-62
2022/07/04 01:16:38;;;;;;;;;;;;;;;22.92;68.19;153416.53;1682891;85;20175;-62
2022/07/04 01:19:05;;;;;;;;;;;;;;;22.94;68.00;153421.77;1682980;85;21265;-63
2022/07/04 01:21:33;;;;;;;;;;;;;;;22.96;67.95;153426.98;1683059;85;20432;-62
2022/07/04 01:24:00;;;;;;;;;;;;;;;23.00;67.42;153438.78;1682912;85;20152;-62
2022/07/04 01:26:28;;;;;;;;;;;;;;;23.03;67.26;153445.28;1683067;85;20179;-63
2022/07/04 01:28:55;;;;;;;;;;;;;;;23.06;67.13;153453.13;1683408;85;20207;-63
2022/07/04 01:31:21;;;;;;;;;;;;;;;23.06;67.38;153451.84;1683284;85;21159;-63
2022/07/04 01:33:49;;;;;;;;;;;;;;;23.00;69.06;153438.78;1682801;85;20452;-63
2022/07/04 01:36:16;;;;;;;;;;;;;;;22.93;69.60;153420.42;1682717;85;20484;-63
2022/07/04 01:38:43;;;;;;;;;;;;;;;22.89;69.71;153409.97;1682568;85;21486;-63
2022/07/04 01:41:10;;;;;;;;;;;;;;;22.89;69.36;153409.97;1682960;85;20152;-63
2022/07/04 01:43:37;;;;;;;;;;;;;;;22.92;68.92;153416.53;1683030;85;21262;-63
2022/07/04 01:46:03;;;;;;;;;;;;;;;22.98;68.58;153432.22;1683100;85;20444;-62
2022/07/04 01:48:30;;;;;;;;;;;;;;;23.01;68.25;153441.39;1683145;85;20200;-63
2022/07/04 01:50:57;;;;;;;;;;;;;;;23.05;68.07;153450.52;1683174;85;20162;-63
2022/07/04 01:53:24;;;;;;;;;;;;;;;23.07;67.75;153455.75;1683299;85;20175;-63
2022/07/04 01:55:50;;;;;;;;;;;;;;;23.07;67.25;153455.75;1683372;85;21107;-63
2022/07/04 01:58:17;;;;;;;;;;;;;;;23.09;67.12;153460.98;1683131;85;20199;-63
2022/07/04 02:03:28;;;;;;;;;;;;;;;23.28;66.41;153508.14;1683267;85;20416;-63
2022/07/04 02:05:55;;;;;;;;;;;;;;;23.35;66.72;153525.16;1683241;85;20476;-62
2022/07/04 02:08:22;;;;;;;;;;;;;;;23.40;66.16;153539.58;1691844;83;21243;-63
2022/07/04 02:10:48;;;;;;;;;;;;;;;23.48;65.51;153557.88;1682425;85;20167;-63
2022/07/04 02:13:15;;;;;;;;;;;;;;;23.52;65.43;153569.67;1727579;82;20151;-63
2022/07/04 02:15:42;;;;;;;;;;;;;;;23.57;65.18;153581.47;1720796;83;20174;-63
2022/07/04 02:18:10;;;;;;;;;;;;;;;23.59;67.12;153586.70;1720964;83;20135;-63
2022/07/04 02:20:37;;;;;;;;;;;;;;;23.60;69.24;153589.31;1721154;83;21200;-63
2022/07/04 02:23:04;;;;;;;;;;;;;;;23.56;71.26;153578.86;1720830;83;20178;-63
2022/07/04 02:25:31;;;;;;;;;;;;;;;23.53;72.67;153570.95;1721065;83;20417;-62
2022/07/04 02:27:58;;;;;;;;;;;;;;;23.53;74.05;153572.28;1720856;83;20435;-63
2022/07/04 02:30:25;;;;;;;;;;;;;;;23.52;75.42;153568.34;1721170;83;20396;-62
2022/07/04 02:32:53;;;;;;;;;;;;;;;23.51;76.85;153567.06;1720743;82;20463;-62
2022/07/04 02:35:20;;;;;;;;;;;;;;;23.48;78.20;153557.88;1720831;83;20440;-63
2022/07/04 02:37:46;;;;;;;;;;;;;;;23.49;79.16;153560.50;1720680;83;20138;-62
2022/07/04 02:40:13;;;;;;;;;;;;;;;23.50;80.34;153563.11;1720976;83;20174;-63
2022/07/04 02:42:40;;;;;;;;;;;;;;;23.53;81.20;153570.95;1721070;83;20495;-63
2022/07/04 02:45:08;;;;;;;;;;;;;;;23.56;81.54;153580.14;1721039;83;21240;-63
2022/07/04 02:47:35;;;;;;;;;;;;;;;23.59;81.70;153586.70;1720928;82;20270;-63
2022/07/04 02:50:02;;;;;;;;;;;;;;;23.62;81.72;153594.55;1720913;83;20207;-63
2022/07/04 02:52:29;;;;;;;;;;;;;;;23.71;81.43;153616.81;1721129;83;20130;-63
2022/07/04 02:54:56;;;;;;;;;;;;;;;23.82;81.22;153645.58;1721034;83;20435;-63
2022/07/04 02:57:23;;;;;;;;;;;;;;;23.92;80.55;153669.17;1720883;83;21144;-63
2022/07/04 02:59:50;;;;;;;;;;;;;;;23.96;80.12;153680.92;1720708;83;20200;-63
2022/07/04 03:02:16;;;;;;;;;;;;;;;24.07;79.74;153708.47;1721073;83;20178;-63
2022/07/04 03:04:43;;;;;;;;;;;;;;;24.13;79.54;153724.22;1720805;83;20507;-63
2022/07/04 03:07:10;;;;;;;;;;;;;;;24.17;78.99;153733.34;1721002;83;20152;-63
2022/07/04 03:09:37;;;;;;;;;;;;;;;24.20;78.24;153741.19;1720833;83;21250;-63
2022/07/04 03:12:06;;;;;;;;;;;;;;;24.22;76.46;153746.47;1719152;83;20322;-64
2022/07/04 03:14:32;;;;;;;;;;;;;;;24.24;75.20;153751.70;1744835;82;20179;-64
2022/07/04 03:17:00;;;;;;;;;;;;;;;24.28;74.99;153760.84;1745254;82;20380;-64
2022/07/04 03:19:26;;;;;;;;;;;;;;;24.33;75.14;153773.97;1745009;82;20206;-64
2022/07/04 03:21:53;;;;;;;;;;;;;;;24.41;75.45;153793.56;1745057;82;21207;-65
2022/07/04 03:24:20;;;;;;;;;;;;;;;24.45;76.13;153804.09;1744890;82;20166;-64
2022/07/04 03:26:47;;;;;;;;;;;;;;;24.50;76.39;153817.17;1745160;82;20210;-64
2022/07/04 03:29:13;;;;;;;;;;;;;;;24.57;76.74;153835.48;1744806;81;20296;-63
2022/07/04 03:31:40;;;;;;;;;;;;;;;24.60;76.63;153843.34;1744825;82;20455;-63
2022/07/04 03:34:07;;;;;;;;;;;;;;;24.63;75.56;153848.58;1744915;82;21252;-63
2022/07/04 03:36:33;;;;;;;;;;;;;;;24.67;74.63;153859.09;1744747;82;20182;-63
2022/07/04 03:39:00;;;;;;;;;;;;;;;24.71;74.46;153870.84;1744980;82;20372;-66
2022/07/04 03:41:27;;;;;;;;;;;;;;;24.77;73.79;153885.31;1745120;82;20898;-63
2022/07/04 03:43:54;;;;;;;;;;;;;;;24.84;72.58;153903.64;1745098;82;20480;-64
2022/07/04 03:46:20;;;;;;;;;;;;;;;24.92;71.40;153922.02;1745172;82;21208;-62
2022/07/04 03:48:47;;;;;;;;;;;;;;;24.97;70.87;153935.09;1744512;82;20292;-63
2022/07/04 03:51:14;;;;;;;;;;;;;;;25.04;70.72;153953.42;1744944;82;20199;-63
2022/07/04 03:53:41;;;;;;;;;;;;;;;25.13;70.59;153975.69;1744793;82;20459;-63
2022/07/04 03:56:09;;;;;;;;;;;;;;;25.22;70.70;153997.97;1740497;82;20137;-63
2022/07/04 03:58:36;;;;;;;;;;;;;;;25.35;70.83;154032.06;1719904;82;21211;-63
2022/07/04 04:01:03;;;;;;;;;;;;;;;25.43;71.15;154053.00;1716855;83;20171;-63
2022/07/04 04:06:15;;;;;;;;;;;;;;;25.48;72.03;154063.53;1717033;83;20435;-62
2022/07/04 04:08:42;;;;;;;;;;;;;;;25.48;72.47;154063.53;1716866;82;20147;-63
2022/07/04 04:11:09;;;;;;;;;;;;;;;25.40;73.04;154043.81;1734234;82;21313;-63
2022/07/04 04:13:35;;;;;;;;;;;;;;;25.32;73.41;154024.20;1745024;82;20174;-63
2022/07/04 04:16:03;;;;;;;;;;;;;;;25.22;73.96;153997.97;1745268;82;20155;-63
2022/07/04 04:18:31;;;;;;;;;;;;;;;25.11;74.73;153971.80;1745610;82;20584;-63
2022/07/04 04:20:58;;;;;;;;;;;;;;;25.04;75.20;153953.42;1745437;82;20210;-63
2022/07/04 04:23:25;;;;;;;;;;;;;;;24.98;75.47;153939.05;1745387;82;21184;-63
2022/07/04 04:25:51;;;;;;;;;;;;;;;24.97;75.95;153935.09;1745352;82;20194;-63
2022/07/04 04:28:18;;;;;;;;;;;;;;;24.96;76.43;153932.48;1745567;82;20157;-63
2022/07/04 04:30:45;;;;;;;;;;;;;;;24.95;76.80;153929.86;1745170;82;20170;-64
2022/07/04 04:33:12;;;;;;;;;;;;;;;24.96;77.23;153933.77;1745460;82;20424;-63
2022/07/04 04:35:39;;;;;;;;;;;;;;;24.96;77.64;153933.77;1745317;82;21237;-63
2022/07/04 04:38:07;;;;;;;;;;;;;;;24.93;77.68;153924.63;1745389;82;20384;-63
2022/07/04 04:40:34;;;;;;;;;;;;;;;24.85;77.72;153904.97;1745378;82;20185;-63
2022/07/04 04:43:01;;;;;;;;;;;;;;;24.76;78.71;153882.70;1745305;82;20164;-63
2022/07/04 04:45:28;;;;;;;;;;;;;;;24.57;80.57;153835.48;1745494;82;20131;-63
2022/07/04 04:47:54;;;;;;;;;;;;;;;24.30;77.54;153766.08;1745379;82;21145;-63
2022/07/04 04:50:21;;;;;;;;;;;;;;;23.96;74.98;153680.92;1744892;82;20202;-63
2022/07/04 04:52:48;;;;;;;;;;;;;;;23.68;74.26;153610.25;1744919;82;20419;-62
2022/07/04 04:55:15;;;;;;;;;;;;;;;23.51;73.64;153567.06;1745104;82;20206;-62
2022/07/04 04:57:41;;;;;;;;;;;;;;;23.31;71.18;153516.00;1745368;82;20459;-63
2022/07/04 05:00:10;;;;;;;;;;;;;;;23.15;70.12;153475.39;1745637;82;21233;-63
2022/07/04 05:02:37;;;;;;;;;;;;;;;23.07;69.84;153455.75;1745570;82;20142;-63
2022/07/04 05:05:06;;;;;;;;;;;;;;;23.00;69.71;153437.44;1745482;82;20202;-63
2022/07/04 05:07:33;;;;;;;;;;;;;;;22.90;69.67;153412.59;1745618;82;20453;-62
2022/07/04 05:10:00;;;;;;;;;;;;;;;22.75;70.78;153375.94;1745381;82;20511;-63
2022/07/04 05:12:27;;;;;;;;;;;;;;;22.72;73.02;153366.81;1745641;82;21184;-63
2022/07/04 05:14:54;;;;;;;;;;;;;;;22.67;74.72;153355.02;1749788;82;20198;-63
2022/07/04 05:17:21;;;;;;;;;;;;;;;22.64;76.31;153345.84;1750488;82;20435;-63
2022/07/04 05:19:48;;;;;;;;;;;;;;;22.64;77.63;153345.84;1750173;82;20694;-62
2022/07/04 05:22:15;;;;;;;;;;;;;;;22.66;78.75;153352.41;1750413;81;20178;-62
2022/07/04 05:24:41;;;;;;;;;;;;;;;22.71;79.88;153365.47;1750329;82;21312;-62
2022/07/04 05:27:08;;;;;;;;;;;;;;;22.77;80.61;153379.88;1750235;82;20403;-62
2022/07/04 05:29:35;;;;;;;;;;;;;;;22.85;80.67;153400.80;1750125;82;20443;-61
2022/07/04 05:32:03;;;;;;;;;;;;;;;22.97;77.09;153429.59;1750191;81;21165;-63
2022/07/04 05:34:30;;;;;;;;;;;;;;;23.07;74.00;153455.75;1750561;82;20453;-63
2022/07/04 05:36:56;;;;;;;;;;;;;;;23.19;73.30;153485.84;1750274;82;21310;-63
2022/07/04 05:39:23;;;;;;;;;;;;;;;23.36;72.79;153527.78;1751047;80;20415;-62
2022/07/04 05:41:50;;;;;;;;;;;;;;;23.48;72.85;153559.22;1759054;80;20248;-63
2022/07/04 05:44:16;;;;;;;;;;;;;;;23.63;73.09;153597.16;1752993;81;20451;-63
2022/07/04 05:46:43;;;;;;;;;;;;;;;23.78;72.95;153635.11;1764783;80;20172;-63
2022/07/04 05:49:11;;;;;;;;;;;;;;;23.89;73.03;153662.61;1740373;81;21237;-63
2022/07/04 05:51:38;;;;;;;;;;;;;;;23.99;73.00;153688.81;1738413;82;20451;-63
2022/07/04 05:54:05;;;;;;;;;;;;;;;24.06;72.94;153705.84;1738470;81;20096;-63
2022/07/04 05:56:32;;;;;;;;;;;;;;;24.10;73.09;153715.03;1753507;81;20098;-63
2022/07/04 05:58:58;;;;;;;;;;;;;;;24.13;73.50;153724.22;1758289;81;20169;-61
2022/07/04 06:01:25;;;;;;;;;;;;;;;24.16;74.62;153730.72;1753638;80;21096;-62
2022/07/04 06:03:52;;;;;;;;;;;;;;;24.13;74.68;153724.22;1755543;81;20459;-62
2022/07/04 06:06:18;;;;;;;;;;;;;;;24.10;75.06;153715.03;1762677;81;20214;-63
2022/07/04 06:08:45;;;;;;;;;;;;;;;24.10;74.45;153715.03;1760680;80;20180;-63
2022/07/04 06:11:12;;;;;;;;;;;;;;;24.14;73.54;153726.83;1753561;80;20168;-63
2022/07/04 06:13:38;;;;;;;;;;;;;;;24.24;73.39;153751.70;1756614;81;21095;-63
2022/07/04 06:16:05;;;;;;;;;;;;;;;24.38;74.41;153787.06;1758289;80;20391;-63
2022/07/04 06:18:32;;;;;;;;;;;;;;;24.52;74.84;153822.41;1760329;81;20221;-63
2022/07/04 06:20:59;;;;;;;;;;;;;;;24.74;75.33;153878.70;1759029;80;20192;-63
2022/07/04 06:23:26;;;;;;;;;;;;;;;24.98;74.78;153937.72;1745222;80;20180;-63
2022/07/04 06:25:53;;;;;;;;;;;;;;;25.20;72.32;153992.75;1740705;80;21303;-63
2022/07/04 06:28:19;;;;;;;;;;;;;;;25.39;69.94;154041.20;1735389;80;20181;-63
2022/07/04 06:30:49;;;;;;;;;;;;;;;25.51;67.86;154071.37;1718484;82;20191;-62
2022/07/04 06:33:16;;;;;;;;;;;;;;;25.60;67.38;154095.00;1710493;82;20475;-62
2022/07/04 06:35:45;;;;;;;;;;;;;;;25.64;68.61;154105.47;1720159;82;20403;-63
2022/07/04 06:38:18;;;;;;;;;;;;;;;25.66;69.83;154110.70;1728654;82;21246;-63
2022/07/04 06:40:46;;;;;;;;;;;;;;;25.64;70.93;154104.14;1719095;82;20197;-63
2022/07/04 06:43:13;;;;;;;;;;;;;;;25.56;71.01;154084.53;1725019;82;20204;-63
2022/07/04 06:45:40;;;;;;;;;;;;;;;25.52;71.18;154074.00;1729538;82;20207;-63
2022/07/04 06:48:08;;;;;;;;;;;;;;;25.52;69.30;154074.00;1727507;82;20129;-63
2022/07/04 06:50:35;;;;;;;;;;;;;;;25.59;68.46;154092.38;1712669;82;21309;-62
2022/07/04 06:53:02;;;;;;;;;;;;;;;25.71;68.92;154123.81;1724032;82;20149;-62
2022/07/04 06:55:29;;;;;;;;;;;;;;;25.87;67.70;154163.14;1719771;82;20189;-63
2022/07/04 06:57:57;;;;;;;;;;;;;;;26.02;65.94;154202.47;1715160;82;20200;-63
2022/07/04 07:00:24;;;;;;;;;;;;;;;26.20;63.71;154247.09;1726471;82;20194;-62
2022/07/04 07:02:51;;;;;;;;;;;;;;;26.41;62.55;154299.48;1723033;82;21237;-63
2022/07/04 07:05:18;;;;;;;;;;;;;;;26.62;60.58;154351.94;1727181;82;20200;-61
2022/07/04 07:07:44;;;;;;;;;;;;;;;26.83;59.03;154407.02;1719608;82;20453;-61
2022/07/04 07:10:11;;;;;;;;;;;;;;;27.05;58.53;154462.14;1718556;82;21007;-61
2022/07/04 07:12:38;;;;;;;;;;;;;;;27.26;55.91;154514.61;1727474;82;20178;-61
2022/07/04 07:15:05;;;;;;;;;;;;;;;27.48;52.51;154569.70;1695668;81;21221;-62
2022/07/04 07:17:33;;;;;;;;;;;;;;;27.68;51.27;154620.94;1684807;83;20464;-62
2022/07/04 07:19:59;;;;;;;;;;;;;;;27.90;49.54;154677.34;1692597;82;20193;-62
2022/07/04 07:22:26;;;;;;;;;;;;;;;28.14;48.60;154737.69;1688439;84;20465;-62
2022/07/04 07:24:53;;;;;;;;;;;;;;;28.30;46.37;154779.75;1691548;82;20238;-62
2022/07/04 07:27:19;;;;;;;;;;;;;;;28.50;45.04;154829.63;1689755;84;21547;-62
2022/07/04 07:29:46;;;;;;;;;;;;;;;28.72;43.98;154884.77;1694364;83;20213;-63
2022/07/04 07:32:13;;;;;;;;;;;;;;;28.94;42.79;154941.23;1695467;84;20456;-63
2022/07/04 07:34:40;;;;;;;;;;;;;;;29.16;42.25;154996.38;1693635;82;20173;-63
2022/07/04 07:37:07;;;;;;;;;;;;;;;29.40;41.70;155056.78;1693165;82;20143;-62
2022/07/04 07:39:35;;;;;;;;;;;;;;;29.64;40.46;155117.28;1697169;82;21255;-62
2022/07/04 07:42:02;;;;;;;;;;;;;;;29.89;40.42;155181.61;1703967;82;20177;-63
2022/07/04 07:44:29;;;;;;;;;;;;;;;30.15;38.87;155247.33;1685757;84;20162;-62
2022/07/04 07:46:56;;;;;;;;;;;;;;;30.41;38.28;155313.06;1681657;85;20669;-61
2022/07/04 07:49:22;;;;;;;;;;;;;;;30.67;37.68;155380.09;1681532;85;20266;-63
2022/07/04 07:51:51;;;;;;;;;;;;;;;30.94;37.59;155447.13;1681234;85;20223;-62
2022/07/04 07:54:18;;;;;;;;;;;;;;;31.23;37.44;155520.75;1691491;82;20564;-62
2022/07/04 07:56:45;;;;;;;;;;;;;;;31.53;37.21;155597.03;1705301;82;20359;-62
2022/07/04 07:59:12;;;;;;;;;;;;;;;31.81;37.43;155669.34;1711771;82;20173;-62
2022/07/04 08:01:38;;;;;;;;;;;;;;;32.04;36.66;155725.92;1712700;82;20225;-61
2022/07/04 08:06:50;;;;;;;;;;;;;;;32.11;35.83;155745.64;1692523;82;20202;-61
2022/07/04 08:09:18;;;;;;;;;;;;;;;32.04;36.03;155725.92;1716708;82;20135;-61
2022/07/04 08:11:45;;;;;;;;;;;;;;;31.88;36.21;155686.45;1698711;83;20589;-61
2022/07/04 08:14:11;;;;;;;;;;;;;;;31.65;37.36;155628.56;1727026;82;20202;-61
2022/07/04 08:16:38;;;;;;;;;;;;;;;31.44;39.18;155575.97;1692261;82;21257;-61
2022/07/04 08:19:06;;;;;;;;;;;;;;;31.19;41.09;155510.20;1705015;82;20138;-62
2022/07/04 08:21:34;;;;;;;;;;;;;;;30.94;42.54;155447.13;1702221;82;20435;-61
2022/07/04 08:24:01;;;;;;;;;;;;;;;30.72;43.28;155393.22;1688129;82;20185;-62
2022/07/04 08:26:28;;;;;;;;;;;;;;;30.53;44.53;155344.56;1709531;82;20218;-63
2022/07/04 08:28:57;;;;;;;;;;;;;;;30.36;45.97;155299.89;1690058;82;20741;-62
2022/07/04 08:31:24;;;;;;;;;;;;;;;30.21;46.84;155261.78;1702478;82;20613;-62
2022/07/04 08:33:53;;;;;;;;;;;;;;;30.10;47.57;155234.20;1690672;84;20184;-63
2022/07/04 08:36:19;;;;;;;;;;;;;;;30.01;48.85;155213.20;1683577;83;20196;-63
2022/07/04 08:38:46;;;;;;;;;;;;;;;29.96;50.33;155200.03;1685382;82;20448;-63
2022/07/04 08:41:13;;;;;;;;;;;;;;;29.90;51.88;155184.23;1698033;82;21729;-63
2022/07/04 08:43:40;;;;;;;;;;;;;;;29.83;53.14;155165.86;1684490;82;20182;-62
2022/07/04 08:46:06;;;;;;;;;;;;;;;29.82;54.30;155163.23;1708711;82;20255;-63
2022/07/04 08:48:33;;;;;;;;;;;;;;;29.83;54.67;155165.86;1711063;82;20171;-62
2022/07/04 08:51:04;;;;;;;;;;;;;;;29.87;54.49;155177.69;1704520;82;20440;-62
2022/07/04 08:53:31;;;;;;;;;;;;;;;29.95;54.61;155197.36;1701051;82;21875;-63
2022/07/04 08:58:43;;;;;;;;;;;;;;;30.08;55.58;155228.95;1714001;82;20172;-62
2022/07/04 09:01:16;;;;;;;;;;;;;;;30.05;56.88;155221.08;1703952;82;20505;-62
2022/07/04 09:03:44;;;;;;;;;;;;;;;29.95;58.06;155196.06;1711762;82;20202;-63
2022/07/04 09:06:11;;;;;;;;;;;;;;;29.79;59.44;155155.36;1719724;82;21973;-64
2022/07/04 09:08:39;;;;;;;;;;;;;;;29.60;61.12;155108.08;1700929;82;20211;-63
2022/07/04 09:11:06;;;;;;;;;;;;;;;29.42;62.25;155063.41;1717890;82;20181;-63
2022/07/04 09:13:33;;;;;;;;;;;;;;;29.18;63.32;155001.67;1680097;82;20160;-63
2022/07/04 09:16:00;;;;;;;;;;;;;;;28.95;64.26;154942.58;1695514;82;20182;-63
2022/07/04 09:18:35;;;;;;;;;;;;;;;28.78;65.06;154900.50;1712669;81;21230;-63
2022/07/04 09:21:03;;;;;;;;;;;;;;;28.61;65.81;154857.19;1715568;81;20173;-63
2022/07/04 09:23:32;;;;;;;;;;;;;;;28.48;66.55;154824.39;1729828;82;20175;-63
2022/07/04 09:26:16;;;;;;;;;;;;;;;28.39;67.16;154800.73;1719308;82;20197;-63
2022/07/04 09:28:59;;;;;;;;;;;;;;;28.27;67.83;154771.89;1690334;83;20153;-62
2022/07/04 09:31:27;;;;;;;;;;;;;;;28.22;68.72;154758.78;1714546;82;21253;-62
2022/07/04 09:33:55;;;;;;;;;;;;;;;28.17;69.36;154745.61;1719839;82;20331;-62
2022/07/04 09:36:24;;;;;;;;;;;;;;;28.13;69.96;154735.06;1704057;82;20156;-62
2022/07/04 09:39:14;;;;;;;;;;;;;;;28.12;70.62;154732.45;1723347;81;20184;-62
2022/07/04 09:42:00;;;;;;;;;;;;;;;28.11;71.09;154729.83;1717375;82;20169;-62
2022/07/04 09:44:29;;;;;;;;;;;;;;;28.12;71.64;154732.45;1734114;82;21186;-62
2022/07/04 09:46:56;;;;;;;;;;;;;;;28.18;71.89;154746.94;1690420;82;20198;-62
2022/07/04 09:49:23;;;;;;;;;;;;;;;28.25;71.67;154766.64;1724456;82;20215;-62
2022/07/04 09:51:52;;;;;;;;;;;;;;;28.38;70.59;154799.44;1737275;82;20210;-62
2022/07/04 09:54:31;;;;;;;;;;;;;;;28.51;68.91;154832.25;1727286;81;20193;-62
2022/07/04 09:56:57;;;;;;;;;;;;;;;28.64;66.22;154863.78;1698773;82;21146;-62
2022/07/04 09:59:24;;;;;;;;;;;;;;;28.76;65.02;154895.25;1727600;82;20240;-62
2022/07/04 10:01:51;;;;;;;;;;;;;;;28.82;65.22;154911.05;1740461;82;20138;-63
2022/07/04 10:04:21;;;;;;;;;;;;;;;28.87;65.57;154924.22;1738587;82;20627;-64
2022/07/04 10:06:46;;;;;;;;;;;;;;;28.92;65.74;154934.70;1716632;82;20229;-64
2022/07/04 10:09:14;;;;;;;;;;;;;;;28.92;63.47;154934.70;1726527;82;21163;-64
2022/07/04 10:11:42;;;;;;;;;;;;;;;28.92;63.27;154934.70;1718109;82;20730;-64
2022/07/04 10:14:10;;;;;;;;;;;;;;;28.92;61.34;154934.70;1722417;82;20167;-64
2022/07/04 10:16:38;;;;;;;;;;;;;;;28.88;60.91;154926.84;1731304;82;20191;-64
2022/07/04 10:19:05;;;;;;;;;;;;;;;28.88;60.41;154925.50;1715356;82;20181;-65
2022/07/04 10:21:32;;;;;;;;;;;;;;;28.86;59.69;154921.58;1719586;81;21219;-63
2022/07/04 10:23:59;;;;;;;;;;;;;;;28.86;59.27;154921.58;1730028;82;20311;-64
2022/07/04 10:26:29;;;;;;;;;;;;;;;28.81;60.57;154908.42;1727974;82;20200;-65
2022/07/04 10:28:56;;;;;;;;;;;;;;;28.76;63.24;154895.25;1717588;82;20171;-64
2022/07/04 10:31:25;;;;;;;;;;;;;;;28.66;62.02;154869.03;1714240;82;20204;-64
2022/07/04 10:33:52;;;;;;;;;;;;;;;28.60;60.90;154855.86;1713256;82;21209;-64
2022/07/04 10:36:20;;;;;;;;;;;;;;;28.59;60.78;154851.95;1742865;82;20573;-64
2022/07/04 10:38:55;;;;;;;;;;;;;;;28.57;59.16;154847.98;1717562;82;20193;-64
2022/07/04 10:41:23;;;;;;;;;;;;;;;28.56;59.28;154845.38;1743649;82;20671;-64
2022/07/04 10:44:14;;;;;;;;;;;;;;;28.55;57.37;154842.75;1747022;82;20189;-64
2022/07/04 10:46:47;;;;;;;;;;;;;;;28.55;55.35;154842.75;1744360;82;21818;-65
2022/07/04 10:49:21;;;;;;;;;;;;;;;28.58;52.87;154850.61;1728265;81;20317;-65
2022/07/04 10:52:10;;;;;;;;;;;;;;;28.62;51.12;154858.48;1718311;82;20162;-65
2022/07/04 10:54:42;;;;;;;;;;;;;;;28.64;49.90;154863.78;1741511;82;20484;-63
2022/07/04 10:57:19;;;;;;;;;;;;;;;28.62;47.11;154858.48;1738865;82;20179;-64
2022/07/04 11:00:00;;;;;;;;;;;;;;;28.56;47.59;154845.38;1694039;82;21156;-65
2022/07/04 11:02:30;;;;;;;;;;;;;;;28.54;48.16;154838.84;1748675;82;20443;-65
2022/07/04 11:05:09;;;;;;;;;;;;;;;28.52;49.69;154834.88;1738405;82;20450;-65
2022/07/04 11:07:42;;;;;;;;;;;;;;;28.50;48.07;154829.63;1736105;82;20174;-65
2022/07/04 11:10:16;;;;;;;;;;;;;;;28.49;46.70;154825.67;1724352;82;20474;-65
2022/07/04 11:13:00;;;;;;;;;;;;;;;28.51;45.21;154832.25;1715585;82;22020;-65
2022/07/04 11:15:33;;;;;;;;;;;;;;;28.54;44.08;154840.13;1708378;83;20418;-65
2022/07/04 11:18:10;;;;;;;;;;;;;;;28.55;43.72;154842.75;1702014;82;20175;-66
2022/07/04 11:20:38;;;;;;;;;;;;;;;28.56;42.97;154845.38;1694756;84;20210;-65
2022/07/04 11:23:07;;;;;;;;;;;;;;;28.58;42.39;154850.61;1673294;84;20209;-65
2022/07/04 11:25:34;;;;;;;;;;;;;;;28.59;41.79;154851.95;1695984;82;21243;-64
2022/07/04 11:28:31;;;;;;;;;;;;;;;28.58;42.33;154850.61;1694563;83;20178;-65
2022/07/04 11:31:04;;;;;;;;;;;;;;;28.59;43.55;154853.23;1696354;82;20201;-64
2022/07/04 11:33:30;;;;;;;;;;;;;;;28.62;45.42;154859.81;1699780;82;20230;-66
2022/07/04 11:36:09;;;;;;;;;;;;;;;28.67;48.42;154872.94;1697584;82;20249;-65
2022/07/04 11:38:55;;;;;;;;;;;;;;;28.64;49.88;154863.78;1681324;84;21187;-66
2022/07/04 11:47:15;;;;;;;;;;;;;;;28.53;48.80;154837.50;1695195;82;20301;-64
2022/07/04 11:49:52;;;;;;;;;;;;;;;28.52;48.09;154834.88;1705336;82;20242;-64
2022/07/04 11:52:24;;;;;;;;;;;;;;;28.52;47.41;154834.88;1688699;82;21252;-64
2022/07/04 11:54:50;;;;;;;;;;;;;;;28.48;48.32;154824.39;1690381;83;20303;-64
2022/07/04 11:57:20;;;;;;;;;;;;;;;28.44;47.54;154813.89;1691730;82;20131;-65
2022/07/04 12:00:02;;;;;;;;;;;;;;;28.38;47.22;154798.11;1716682;82;20401;-66
2022/07/04 12:02:32;;;;;;;;;;;;;;;28.32;47.67;154783.72;1701206;82;20177;-65
2022/07/04 12:04:59;;;;;;;;;;;;;;;28.28;47.85;154774.50;1694124;82;21241;-66
2022/07/04 12:07:27;;;;;;;;;;;;;;;28.25;45.75;154765.31;1690824;82;20447;-65
2022/07/04 12:09:55;;;;;;;;;;;;;;;28.21;43.54;154756.16;1694738;82;20215;-65
2022/07/04 12:12:22;;;;;;;;;;;;;;;28.15;43.08;154740.31;1697848;82;20174;-65
2022/07/04 12:14:57;;;;;;;;;;;;;;;28.10;44.44;154727.20;1700492;82;20447;-66
2022/07/04 12:17:30;;;;;;;;;;;;;;;28.06;45.65;154718.00;1692144;82;21753;-65
2022/07/04 12:20:17;;;;;;;;;;;;;;;28.03;46.17;154711.47;1695896;82;20196;-66
2022/07/04 12:22:51;;;;;;;;;;;;;;;28.02;47.26;154708.84;1692352;82;20129;-65
2022/07/04 12:25:29;;;;;;;;;;;;;;;27.98;46.84;154698.36;1690760;82;20158;-65
2022/07/04 12:28:03;;;;;;;;;;;;;;;27.94;47.34;154687.83;1698444;82;20245;-65
2022/07/04 12:30:33;;;;;;;;;;;;;;;27.94;48.43;154687.83;1698074;82;21247;-65
2022/07/04 12:33:01;;;;;;;;;;;;;;;27.92;49.69;154682.59;1688336;82;20428;-67
2022/07/04 12:35:36;;;;;;;;;;;;;;;27.88;50.34;154672.09;1708279;82;20177;-65
2022/07/04 12:38:05;;;;;;;;;;;;;;;27.83;50.21;154658.98;1698129;82;20199;-65
2022/07/04 12:40:34;;;;;;;;;;;;;;;27.78;49.69;154645.88;1695016;82;20177;-65
2022/07/04 12:43:01;;;;;;;;;;;;;;;27.76;50.24;154640.63;1692966;82;21145;-65
2022/07/04 12:45:43;;;;;;;;;;;;;;;27.74;51.46;154638.02;1700296;82;20321;-64
2022/07/04 12:48:17;;;;;;;;;;;;;;;27.70;53.38;154627.47;1687645;83;20208;-64
2022/07/04 12:50:44;;;;;;;;;;;;;;;27.65;55.45;154613.08;1695028;82;21388;-66
2022/07/04 12:53:11;;;;;;;;;;;;;;;27.62;55.93;154605.16;1701716;82;20171;-65
2022/07/04 12:55:46;;;;;;;;;;;;;;;27.57;55.42;154593.39;1703112;83;21223;-64
2022/07/04 12:58:12;;;;;;;;;;;;;;;27.52;55.43;154580.23;1701167;84;20222;-64